createdAt,value
2023-02-09T00:01:48.176Z,15.90
2023-02-09T00:07:08.850Z,8.15
2023-02-09T00:12:47.953Z,8.40
2023-02-09T00:18:08.694Z,7.18
2023-02-09T00:23:31.494Z,7.65
2023-02-09T00:28:52.497Z,6.78
2023-02-09T00:34:15.084Z,7.90
2023-02-09T00:39:35.683Z,9.00
2023-02-09T00:44:59.134Z,8.20
2023-02-09T00:50:19.613Z,7.25
2023-02-09T00:55:40.308Z,7.07
2023-02-09T01:01:01.494Z,7.30
2023-02-09T01:06:22.338Z,8.55
2023-02-09T01:11:43.124Z,7.80
2023-02-09T01:17:06.004Z,7.30
2023-02-09T01:22:27.235Z,8.07
2023-02-09T01:27:47.960Z,8.05
2023-02-09T01:33:08.692Z,8.10
2023-02-09T01:38:29.614Z,9.18
2023-02-09T01:44:11.726Z,10.55
2023-02-09T01:49:32.845Z,10.68
2023-02-09T01:55:03.442Z,8.35
2023-02-09T02:00:25.509Z,10.70
2023-02-09T02:05:50.736Z,8.48
2023-02-09T02:11:12.771Z,10.73
2023-02-09T02:16:54.114Z,8.35
2023-02-09T02:22:53.866Z,8.48
2023-02-09T02:28:33.192Z,6.88
2023-02-09T02:33:57.347Z,8.25
2023-02-09T02:39:42.354Z,7.82
2023-02-09T02:45:12.540Z,7.80
2023-02-09T02:50:37.524Z,7.72
2023-02-09T02:56:06.301Z,8.40
2023-02-09T03:01:34.334Z,6.57
2023-02-09T03:06:55.441Z,6.88
2023-02-09T03:12:30.556Z,7.32
2023-02-09T03:18:23.366Z,7.25
2023-02-09T03:24:11.231Z,7.38
2023-02-09T03:29:33.890Z,8.13
2023-02-09T03:34:56.260Z,7.32
2023-02-09T03:40:19.364Z,6.72
2023-02-09T03:45:40.561Z,5.80
2023-02-09T03:51:01.202Z,6.72
2023-02-09T03:56:25.023Z,6.18
2023-02-09T04:01:45.680Z,7.47
2023-02-09T04:07:07.213Z,6.47
2023-02-09T04:12:28.128Z,5.47
2023-02-09T04:17:50.794Z,6.00
2023-02-09T04:23:11.856Z,13.40
2023-02-09T04:28:32.986Z,10.90
2023-02-09T04:33:53.952Z,8.25
2023-02-09T04:39:14.588Z,6.50
2023-02-09T04:44:35.469Z,6.18
2023-02-09T04:49:56.165Z,6.97
2023-02-09T04:55:17.263Z,5.82
2023-02-09T05:00:38.344Z,7.13
2023-02-09T05:06:02.287Z,6.60
2023-02-09T05:11:25.282Z,7.60
2023-02-09T05:16:46.289Z,7.53
2023-02-09T05:22:06.953Z,6.07
2023-02-09T05:27:27.728Z,6.72
2023-02-09T05:32:48.535Z,8.23
2023-02-09T05:38:09.214Z,5.95
2023-02-09T05:43:29.918Z,6.63
2023-02-09T05:48:50.647Z,7.00
2023-02-09T05:54:11.412Z,7.13
2023-02-09T05:59:32.584Z,7.57
2023-02-09T06:04:53.437Z,7.47
2023-02-09T06:10:14.227Z,9.52
2023-02-09T06:15:35.016Z,5.85
2023-02-09T06:20:55.643Z,6.40
2023-02-09T06:26:17.684Z,6.43
2023-02-09T06:31:38.747Z,7.25
2023-02-09T06:37:00.198Z,7.22
2023-02-09T06:42:21.133Z,7.63
2023-02-09T06:47:43.372Z,6.82
2023-02-09T06:53:04.598Z,6.55
2023-02-09T06:58:25.356Z,6.97
2023-02-09T07:03:46.050Z,6.75
2023-02-09T07:09:06.752Z,8.88
2023-02-09T07:14:27.367Z,8.05
2023-02-09T07:19:48.279Z,7.82
2023-02-09T07:25:09.008Z,6.78
2023-02-09T07:30:30.168Z,10.63
2023-02-09T07:35:51.181Z,10.20
2023-02-09T07:41:17.872Z,13.15
2023-02-09T07:46:38.860Z,9.88
2023-02-09T07:51:59.660Z,9.10
2023-02-09T07:57:20.300Z,8.05
2023-02-09T08:02:40.992Z,5.80
2023-02-09T08:08:01.648Z,5.28
2023-02-09T08:13:23.736Z,6.55
2023-02-09T08:18:54.474Z,6.15
2023-02-09T08:24:18.282Z,5.57
2023-02-09T08:29:39.045Z,6.78
2023-02-09T08:34:59.935Z,5.05
2023-02-09T08:40:20.545Z,6.45
2023-02-09T08:45:42.026Z,5.55
2023-02-09T08:51:03.485Z,6.63
2023-02-09T08:56:24.549Z,5.53
2023-02-09T09:01:45.253Z,6.22
2023-02-09T09:07:06.012Z,4.78
2023-02-09T09:12:26.650Z,6.60
2023-02-09T09:17:47.677Z,5.13
2023-02-09T09:23:09.364Z,5.82
2023-02-09T09:28:31.189Z,5.82
2023-02-09T09:33:52.030Z,6.18
2023-02-09T09:39:12.828Z,6.50
2023-02-09T09:44:38.158Z,5.15
2023-02-09T09:49:59.123Z,5.40
2023-02-09T09:55:24.246Z,6.65
2023-02-09T10:00:45.509Z,4.75
2023-02-09T10:06:21.065Z,6.57
2023-02-09T10:11:48.740Z,5.38
2023-02-09T10:17:09.498Z,5.88
2023-02-09T10:22:30.180Z,5.45
2023-02-09T10:27:50.829Z,6.55
2023-02-09T10:33:15.615Z,6.03
2023-02-09T10:38:40.837Z,5.55
2023-02-09T10:44:08.066Z,6.55
2023-02-09T10:49:36.531Z,5.75
2023-02-09T10:55:02.848Z,6.03
2023-02-09T11:00:31.799Z,6.97
2023-02-09T11:06:03.728Z,6.38
2023-02-09T11:11:36.676Z,6.47
2023-02-09T11:17:20.685Z,5.50
2023-02-09T11:22:57.150Z,5.30
2023-02-09T11:28:40.924Z,5.40
2023-02-09T11:34:14.592Z,5.78
2023-02-09T11:39:55.307Z,4.93
2023-02-09T11:45:30.903Z,5.53
2023-02-09T11:51:14.477Z,5.15
2023-02-09T11:56:41.876Z,5.50
2023-02-09T12:02:38.906Z,5.35
2023-02-09T12:08:07.433Z,4.93
2023-02-09T12:13:39.962Z,5.60
2023-02-09T12:19:03.343Z,4.20
2023-02-09T12:24:39.304Z,4.72
2023-02-09T12:30:01.241Z,5.80
2023-02-09T12:35:28.402Z,7.05
2023-02-09T12:41:07.407Z,4.90
2023-02-09T12:46:31.789Z,5.88
2023-02-09T12:52:00.432Z,4.53
2023-02-09T12:57:22.298Z,4.43
2023-02-09T13:02:50.316Z,5.13
2023-02-09T13:08:11.368Z,6.13
2023-02-09T13:13:32.081Z,7.65
2023-02-09T13:18:52.673Z,4.82
2023-02-09T13:24:18.942Z,4.53
2023-02-09T13:29:48.538Z,4.57
2023-02-09T13:35:22.357Z,4.60
2023-02-09T13:40:48.892Z,4.15
2023-02-09T13:46:24.312Z,4.20
2023-02-09T13:51:45.129Z,3.97
2023-02-09T13:57:30.986Z,3.80
2023-02-09T14:02:57.671Z,3.55
2023-02-09T14:08:20.112Z,4.32
2023-02-09T14:13:45.380Z,3.08
2023-02-09T14:19:27.169Z,4.53
2023-02-09T14:24:47.920Z,3.00
2023-02-09T14:30:32.127Z,3.58
2023-02-09T14:35:59.273Z,3.53
2023-02-09T14:41:28.542Z,3.45
2023-02-09T14:46:55.249Z,4.77
2023-02-09T14:52:18.677Z,4.82
2023-02-09T14:57:39.801Z,3.92
2023-02-09T15:03:00.748Z,3.10
2023-02-09T15:08:24.293Z,4.85
2023-02-09T15:13:45.246Z,4.43
2023-02-09T15:19:19.951Z,3.72
2023-02-09T15:24:48.389Z,4.47
2023-02-09T15:30:15.722Z,4.30
2023-02-09T15:35:36.961Z,4.60
2023-02-09T15:41:18.962Z,3.85
2023-02-09T15:46:58.504Z,4.20
2023-02-09T15:52:19.432Z,5.40
2023-02-09T15:57:40.164Z,4.47
2023-02-09T16:03:01.726Z,4.97
2023-02-09T16:08:25.577Z,5.28
2023-02-09T16:13:46.731Z,4.50
2023-02-09T16:19:07.762Z,6.32
2023-02-09T16:24:41.386Z,7.82
2023-02-09T16:30:03.876Z,8.27
2023-02-09T16:35:25.488Z,5.28
2023-02-09T16:40:46.439Z,5.82
2023-02-09T16:46:07.648Z,5.32
2023-02-09T16:51:28.862Z,5.32
2023-02-09T16:56:54.651Z,4.70
2023-02-09T17:02:30.617Z,5.05
2023-02-09T17:07:58.426Z,5.90
2023-02-09T17:13:22.915Z,5.25
2023-02-09T17:18:47.126Z,5.10
2023-02-09T17:24:26.300Z,4.82
2023-02-09T17:29:47.323Z,5.10
2023-02-09T17:35:38.283Z,6.78
2023-02-09T17:41:05.608Z,14.38
2023-02-09T17:46:26.596Z,12.25
2023-02-09T17:51:48.842Z,19.48
2023-02-09T17:57:14.142Z,22.05
2023-02-09T18:02:35.029Z,21.90
2023-02-09T18:07:56.689Z,16.85
2023-02-09T18:13:20.361Z,9.38
2023-02-09T18:18:41.349Z,6.05
2023-02-09T18:24:03.333Z,5.30
2023-02-09T18:29:29.322Z,4.65
2023-02-09T18:34:50.822Z,5.78
2023-02-09T18:40:12.147Z,6.25
2023-02-09T18:45:34.402Z,6.35
2023-02-09T18:50:55.355Z,7.65
2023-02-09T18:56:21.020Z,6.05
2023-02-09T19:01:42.343Z,6.15
2023-02-09T19:07:03.566Z,6.30
2023-02-09T19:12:27.007Z,6.03
2023-02-09T19:17:49.315Z,6.65
2023-02-09T19:23:10.648Z,5.15
2023-02-09T19:28:35.306Z,9.25
2023-02-09T19:33:57.274Z,5.80
2023-02-09T19:39:19.783Z,6.55
2023-02-09T19:44:40.473Z,5.88
2023-02-09T19:50:01.150Z,7.13
2023-02-09T19:55:21.994Z,6.97
2023-02-09T20:00:44.006Z,7.75
2023-02-09T20:06:11.724Z,7.10
2023-02-09T20:11:33.570Z,7.30
2023-02-09T20:16:54.736Z,7.88
2023-02-09T20:22:16.956Z,7.38
2023-02-09T20:27:37.816Z,7.20
2023-02-09T20:32:58.584Z,9.75
2023-02-09T20:38:20.914Z,7.95
2023-02-09T20:44:02.683Z,7.40
2023-02-09T20:49:34.381Z,22.17
2023-02-09T20:54:55.818Z,22.33
2023-02-09T21:00:17.392Z,13.77
2023-02-09T21:05:40.868Z,11.60
2023-02-09T21:11:01.576Z,11.32
2023-02-09T21:16:25.362Z,12.38
2023-02-09T21:21:46.082Z,15.77
2023-02-09T21:27:07.192Z,27.67
2023-02-09T21:32:27.769Z,22.83
2023-02-09T21:37:48.966Z,16.50
2023-02-09T21:43:10.234Z,12.32
2023-02-09T21:48:31.266Z,13.95
2023-02-09T21:53:52.577Z,15.57
2023-02-09T21:59:13.360Z,15.13
2023-02-09T22:04:34.199Z,13.93
2023-02-09T22:09:54.858Z,11.65
2023-02-09T22:15:18.042Z,11.65
2023-02-09T22:20:43.849Z,15.95
2023-02-09T22:26:06.001Z,13.50
2023-02-09T22:31:27.004Z,11.82
2023-02-09T22:36:51.411Z,11.20
2023-02-09T22:42:12.256Z,11.10
2023-02-09T22:47:33.770Z,9.90
2023-02-09T22:52:54.590Z,9.75
2023-02-09T22:58:15.296Z,10.02
2023-02-09T23:03:36.763Z,8.40
2023-02-09T23:09:00.876Z,8.15
2023-02-09T23:14:21.873Z,9.48
2023-02-09T23:19:42.591Z,8.40
2023-02-09T23:25:03.241Z,9.65
2023-02-09T23:30:24.028Z,11.13
2023-02-09T23:35:45.042Z,14.02
2023-02-09T23:41:12.474Z,15.05
2023-02-09T23:46:33.429Z,9.13
2023-02-09T23:51:54.146Z,9.25
2023-02-09T23:57:14.834Z,10.15
